sensor_id;sensor_type;location;lat;lon;timestamp;P1;durP1;ratioP1;P2;durP2;ratioP2
70228;SDS011;57617;51.988;5.854;2023-05-07T00:01:30;15.85;;;9.75;;
70228;SDS011;57617;51.988;5.854;2023-05-07T00:03:56;15.30;;;9.32;;
70228;SDS011;57617;51.988;5.854;2023-05-07T00:06:21;13.80;;;9.57;;
70228;SDS011;57617;51.988;5.854;2023-05-07T00:08:47;14.43;;;9.48;;
70228;SDS011;57617;51.988;5.854;2023-05-07T00:11:15;16.75;;;10.02;;
70228;SDS011;57617;51.988;5.854;2023-05-07T00:13:41;17.17;;;9.77;;
70228;SDS011;57617;51.988;5.854;2023-05-07T00:16:06;16.10;;;9.95;;
70228;SDS011;57617;51.988;5.854;2023-05-07T00:18:31;15.00;;;9.20;;
70228;SDS011;57617;51.988;5.854;2023-05-07T00:20:57;14.90;;;8.75;;
70228;SDS011;57617;51.988;5.854;2023-05-07T00:23:22;16.38;;;9.57;;
70228;SDS011;57617;51.988;5.854;2023-05-07T00:25:48;18.90;;;9.45;;
70228;SDS011;57617;51.988;5.854;2023-05-07T00:28:13;18.77;;;10.27;;
70228;SDS011;57617;51.988;5.854;2023-05-07T00:30:38;15.85;;;10.13;;
70228;SDS011;57617;51.988;5.854;2023-05-07T00:33:04;16.55;;;10.30;;
70228;SDS011;57617;51.988;5.854;2023-05-07T00:35:29;15.65;;;10.57;;
70228;SDS011;57617;51.988;5.854;2023-05-07T00:37:54;16.55;;;9.98;;
70228;SDS011;57617;51.988;5.854;2023-05-07T00:40:20;19.50;;;11.02;;
70228;SDS011;57617;51.988;5.854;2023-05-07T00:42:45;17.80;;;11.10;;
70228;SDS011;57617;51.988;5.854;2023-05-07T00:45:12;18.27;;;10.70;;
70228;SDS011;57617;51.988;5.854;2023-05-07T00:47:41;20.88;;;11.27;;
70228;SDS011;57617;51.988;5.854;2023-05-07T00:50:06;18.27;;;11.25;;
70228;SDS011;57617;51.988;5.854;2023-05-07T00:52:33;19.23;;;10.68;;
70228;SDS011;57617;51.988;5.854;2023-05-07T00:54:59;17.40;;;10.40;;
70228;SDS011;57617;51.988;5.854;2023-05-07T00:57:32;17.90;;;11.57;;
70228;SDS011;57617;51.988;5.854;2023-05-07T01:00:03;19.20;;;10.80;;
70228;SDS011;57617;51.988;5.854;2023-05-07T01:02:29;26.05;;;11.73;;
70228;SDS011;57617;51.988;5.854;2023-05-07T01:04:55;21.13;;;11.85;;
70228;SDS011;57617;51.988;5.854;2023-05-07T01:07:21;20.60;;;12.02;;
70228;SDS011;57617;51.988;5.854;2023-05-07T01:09:48;20.05;;;11.57;;
70228;SDS011;57617;51.988;5.854;2023-05-07T01:12:14;19.75;;;12.35;;
70228;SDS011;57617;51.988;5.854;2023-05-07T01:14:40;25.85;;;12.07;;
70228;SDS011;57617;51.988;5.854;2023-05-07T01:17:06;16.85;;;12.10;;
70228;SDS011;57617;51.988;5.854;2023-05-07T01:19:31;20.95;;;12.73;;
70228;SDS011;57617;51.988;5.854;2023-05-07T01:22:00;21.50;;;13.02;;
70228;SDS011;57617;51.988;5.854;2023-05-07T01:24:29;23.88;;;13.23;;
70228;SDS011;57617;51.988;5.854;2023-05-07T01:26:56;20.08;;;12.55;;
70228;SDS011;57617;51.988;5.854;2023-05-07T01:29:21;22.25;;;13.38;;
70228;SDS011;57617;51.988;5.854;2023-05-07T01:31:47;21.00;;;13.05;;
70228;SDS011;57617;51.988;5.854;2023-05-07T01:34:14;22.60;;;14.00;;
70228;SDS011;57617;51.988;5.854;2023-05-07T01:36:42;21.52;;;13.65;;
70228;SDS011;57617;51.988;5.854;2023-05-07T01:39:08;22.15;;;13.55;;
70228;SDS011;57617;51.988;5.854;2023-05-07T01:41:34;22.77;;;13.38;;
70228;SDS011;57617;51.988;5.854;2023-05-07T01:44:00;21.17;;;13.52;;
70228;SDS011;57617;51.988;5.854;2023-05-07T01:46:27;23.42;;;13.70;;
70228;SDS011;57617;51.988;5.854;2023-05-07T01:48:54;21.65;;;14.88;;
70228;SDS011;57617;51.988;5.854;2023-05-07T01:51:20;22.80;;;14.40;;
70228;SDS011;57617;51.988;5.854;2023-05-07T01:53:47;19.65;;;13.93;;
70228;SDS011;57617;51.988;5.854;2023-05-07T01:56:15;21.92;;;14.25;;
70228;SDS011;57617;51.988;5.854;2023-05-07T01:58:41;23.48;;;15.13;;
70228;SDS011;57617;51.988;5.854;2023-05-07T02:01:06;24.83;;;14.48;;
70228;SDS011;57617;51.988;5.854;2023-05-07T02:03:32;23.80;;;15.48;;
70228;SDS011;57617;51.988;5.854;2023-05-07T02:05:57;23.45;;;15.70;;
70228;SDS011;57617;51.988;5.854;2023-05-07T02:08:22;23.15;;;15.77;;
70228;SDS011;57617;51.988;5.854;2023-05-07T02:10:48;25.30;;;15.90;;
70228;SDS011;57617;51.988;5.854;2023-05-07T02:13:13;24.15;;;16.08;;
70228;SDS011;57617;51.988;5.854;2023-05-07T02:15:38;22.80;;;15.23;;
70228;SDS011;57617;51.988;5.854;2023-05-07T02:18:04;25.35;;;15.68;;
70228;SDS011;57617;51.988;5.854;2023-05-07T02:20:32;23.02;;;15.07;;
70228;SDS011;57617;51.988;5.854;2023-05-07T02:22:57;24.17;;;15.18;;
70228;SDS011;57617;51.988;5.854;2023-05-07T02:25:23;23.70;;;15.43;;
70228;SDS011;57617;51.988;5.854;2023-05-07T02:27:48;26.20;;;16.15;;
70228;SDS011;57617;51.988;5.854;2023-05-07T02:30:13;26.42;;;16.10;;
70228;SDS011;57617;51.988;5.854;2023-05-07T02:32:39;26.48;;;16.00;;
70228;SDS011;57617;51.988;5.854;2023-05-07T02:35:05;25.98;;;15.80;;
70228;SDS011;57617;51.988;5.854;2023-05-07T02:37:30;22.20;;;14.98;;
70228;SDS011;57617;51.988;5.854;2023-05-07T02:39:55;26.20;;;15.95;;
70228;SDS011;57617;51.988;5.854;2023-05-07T02:42:21;24.10;;;14.55;;
70228;SDS011;57617;51.988;5.854;2023-05-07T02:44:46;23.80;;;14.98;;
70228;SDS011;57617;51.988;5.854;2023-05-07T02:47:12;24.63;;;14.50;;
70228;SDS011;57617;51.988;5.854;2023-05-07T02:49:38;27.75;;;15.02;;
70228;SDS011;57617;51.988;5.854;2023-05-07T02:52:04;22.90;;;14.30;;
70228;SDS011;57617;51.988;5.854;2023-05-07T02:54:29;25.23;;;15.20;;
70228;SDS011;57617;51.988;5.854;2023-05-07T02:56:55;27.73;;;15.25;;
70228;SDS011;57617;51.988;5.854;2023-05-07T02:59:21;24.40;;;14.40;;
70228;SDS011;57617;51.988;5.854;2023-05-07T03:01:46;25.40;;;14.40;;
70228;SDS011;57617;51.988;5.854;2023-05-07T03:04:11;27.90;;;14.48;;
70228;SDS011;57617;51.988;5.854;2023-05-07T03:06:37;22.60;;;14.40;;
70228;SDS011;57617;51.988;5.854;2023-05-07T03:09:02;22.65;;;14.63;;
70228;SDS011;57617;51.988;5.854;2023-05-07T03:11:28;23.98;;;14.57;;
70228;SDS011;57617;51.988;5.854;2023-05-07T03:13:53;27.17;;;14.85;;
70228;SDS011;57617;51.988;5.854;2023-05-07T03:16:18;23.77;;;13.73;;
70228;SDS011;57617;51.988;5.854;2023-05-07T03:18:44;22.02;;;14.52;;
70228;SDS011;57617;51.988;5.854;2023-05-07T03:21:09;21.20;;;13.50;;
70228;SDS011;57617;51.988;5.854;2023-05-07T03:23:34;24.73;;;15.00;;
70228;SDS011;57617;51.988;5.854;2023-05-07T03:26:00;22.52;;;13.60;;
70228;SDS011;57617;51.988;5.854;2023-05-07T03:28:25;23.88;;;13.75;;
70228;SDS011;57617;51.988;5.854;2023-05-07T03:30:50;22.77;;;13.50;;
70228;SDS011;57617;51.988;5.854;2023-05-07T03:33:15;26.85;;;13.93;;
70228;SDS011;57617;51.988;5.854;2023-05-07T03:35:41;29.90;;;15.15;;
70228;SDS011;57617;51.988;5.854;2023-05-07T03:38:06;26.08;;;15.02;;
70228;SDS011;57617;51.988;5.854;2023-05-07T03:40:32;21.75;;;14.15;;
70228;SDS011;57617;51.988;5.854;2023-05-07T03:42:57;23.67;;;14.98;;
70228;SDS011;57617;51.988;5.854;2023-05-07T03:45:22;24.08;;;14.55;;
70228;SDS011;57617;51.988;5.854;2023-05-07T03:47:48;22.15;;;14.15;;
70228;SDS011;57617;51.988;5.854;2023-05-07T03:50:13;25.38;;;14.90;;
70228;SDS011;57617;51.988;5.854;2023-05-07T03:52:38;27.23;;;14.60;;
70228;SDS011;57617;51.988;5.854;2023-05-07T03:55:04;25.33;;;14.50;;
70228;SDS011;57617;51.988;5.854;2023-05-07T03:57:30;23.35;;;14.38;;
70228;SDS011;57617;51.988;5.854;2023-05-07T03:59:56;21.63;;;14.63;;
70228;SDS011;57617;51.988;5.854;2023-05-07T04:02:21;26.15;;;15.13;;
70228;SDS011;57617;51.988;5.854;2023-05-07T04:04:48;23.88;;;14.30;;
70228;SDS011;57617;51.988;5.854;2023-05-07T04:07:13;23.30;;;14.75;;
70228;SDS011;57617;51.988;5.854;2023-05-07T04:09:39;33.00;;;15.50;;
70228;SDS011;57617;51.988;5.854;2023-05-07T04:12:04;23.15;;;15.32;;
70228;SDS011;57617;51.988;5.854;2023-05-07T04:14:29;25.75;;;15.77;;
70228;SDS011;57617;51.988;5.854;2023-05-07T04:16:57;25.08;;;15.63;;
70228;SDS011;57617;51.988;5.854;2023-05-07T04:19:22;28.13;;;16.30;;
70228;SDS011;57617;51.988;5.854;2023-05-07T04:21:47;26.35;;;16.45;;
70228;SDS011;57617;51.988;5.854;2023-05-07T04:24:13;29.02;;;16.05;;
70228;SDS011;57617;51.988;5.854;2023-05-07T04:26:38;28.27;;;16.73;;
70228;SDS011;57617;51.988;5.854;2023-05-07T04:29:05;30.35;;;17.25;;
70228;SDS011;57617;51.988;5.854;2023-05-07T04:31:30;29.48;;;17.67;;
70228;SDS011;57617;51.988;5.854;2023-05-07T04:33:56;26.42;;;17.48;;
70228;SDS011;57617;51.988;5.854;2023-05-07T04:36:22;29.05;;;17.98;;
70228;SDS011;57617;51.988;5.854;2023-05-07T04:38:47;30.15;;;17.15;;
70228;SDS011;57617;51.988;5.854;2023-05-07T04:41:12;28.92;;;17.63;;
70228;SDS011;57617;51.988;5.854;2023-05-07T04:43:38;26.48;;;17.77;;
70228;SDS011;57617;51.988;5.854;2023-05-07T04:46:03;30.67;;;18.52;;
70228;SDS011;57617;51.988;5.854;2023-05-07T04:48:28;26.48;;;18.33;;
70228;SDS011;57617;51.988;5.854;2023-05-07T04:50:54;28.00;;;17.92;;
70228;SDS011;57617;51.988;5.854;2023-05-07T04:53:20;28.23;;;17.70;;
70228;SDS011;57617;51.988;5.854;2023-05-07T04:55:46;30.67;;;18.38;;
70228;SDS011;57617;51.988;5.854;2023-05-07T04:58:11;27.95;;;18.10;;
70228;SDS011;57617;51.988;5.854;2023-05-07T05:00:37;28.10;;;17.33;;
70228;SDS011;57617;51.988;5.854;2023-05-07T05:03:04;29.38;;;18.45;;
70228;SDS011;57617;51.988;5.854;2023-05-07T05:05:30;32.80;;;18.20;;
70228;SDS011;57617;51.988;5.854;2023-05-07T05:07:55;26.08;;;17.38;;
70228;SDS011;57617;51.988;5.854;2023-05-07T05:10:21;30.80;;;18.63;;
70228;SDS011;57617;51.988;5.854;2023-05-07T05:12:47;28.70;;;18.38;;
70228;SDS011;57617;51.988;5.854;2023-05-07T05:15:12;25.90;;;17.05;;
70228;SDS011;57617;51.988;5.854;2023-05-07T05:17:38;27.98;;;18.02;;
70228;SDS011;57617;51.988;5.854;2023-05-07T05:20:03;30.63;;;18.30;;
70228;SDS011;57617;51.988;5.854;2023-05-07T05:22:30;29.95;;;18.55;;
70228;SDS011;57617;51.988;5.854;2023-05-07T05:24:56;27.58;;;18.10;;
70228;SDS011;57617;51.988;5.854;2023-05-07T05:27:21;30.98;;;18.30;;
70228;SDS011;57617;51.988;5.854;2023-05-07T05:29:47;28.83;;;18.52;;
70228;SDS011;57617;51.988;5.854;2023-05-07T05:32:12;30.42;;;18.98;;
70228;SDS011;57617;51.988;5.854;2023-05-07T05:34:37;30.52;;;18.55;;
70228;SDS011;57617;51.988;5.854;2023-05-07T05:37:03;28.05;;;17.95;;
70228;SDS011;57617;51.988;5.854;2023-05-07T05:39:28;28.30;;;18.27;;
70228;SDS011;57617;51.988;5.854;2023-05-07T05:41:53;29.60;;;18.52;;
70228;SDS011;57617;51.988;5.854;2023-05-07T05:44:18;32.15;;;18.45;;
70228;SDS011;57617;51.988;5.854;2023-05-07T05:46:44;26.95;;;17.63;;
70228;SDS011;57617;51.988;5.854;2023-05-07T05:49:09;26.00;;;17.27;;
70228;SDS011;57617;51.988;5.854;2023-05-07T05:51:34;27.85;;;18.13;;
70228;SDS011;57617;51.988;5.854;2023-05-07T05:54:00;27.73;;;18.33;;
70228;SDS011;57617;51.988;5.854;2023-05-07T05:56:25;29.20;;;18.30;;
70228;SDS011;57617;51.988;5.854;2023-05-07T05:58:50;29.77;;;18.08;;
70228;SDS011;57617;51.988;5.854;2023-05-07T06:01:16;29.50;;;18.45;;
70228;SDS011;57617;51.988;5.854;2023-05-07T06:03:42;28.02;;;17.35;;
70228;SDS011;57617;51.988;5.854;2023-05-07T06:06:07;30.35;;;18.60;;
70228;SDS011;57617;51.988;5.854;2023-05-07T06:08:33;29.20;;;19.27;;
70228;SDS011;57617;51.988;5.854;2023-05-07T06:10:58;29.25;;;18.05;;
70228;SDS011;57617;51.988;5.854;2023-05-07T06:13:24;28.27;;;18.05;;
70228;SDS011;57617;51.988;5.854;2023-05-07T06:15:50;29.20;;;18.42;;
70228;SDS011;57617;51.988;5.854;2023-05-07T06:18:15;27.63;;;18.10;;
70228;SDS011;57617;51.988;5.854;2023-05-07T06:20:40;30.58;;;18.98;;
70228;SDS011;57617;51.988;5.854;2023-05-07T06:23:06;30.20;;;18.67;;
70228;SDS011;57617;51.988;5.854;2023-05-07T06:25:31;26.63;;;17.80;;
70228;SDS011;57617;51.988;5.854;2023-05-07T06:27:56;29.02;;;18.05;;
70228;SDS011;57617;51.988;5.854;2023-05-07T06:30:21;30.85;;;18.42;;
70228;SDS011;57617;51.988;5.854;2023-05-07T06:32:47;31.02;;;18.25;;
70228;SDS011;57617;51.988;5.854;2023-05-07T06:35:12;31.75;;;19.13;;
70228;SDS011;57617;51.988;5.854;2023-05-07T06:37:38;28.40;;;18.20;;
70228;SDS011;57617;51.988;5.854;2023-05-07T06:40:05;30.27;;;17.58;;
70228;SDS011;57617;51.988;5.854;2023-05-07T06:42:31;29.17;;;17.52;;
70228;SDS011;57617;51.988;5.854;2023-05-07T06:44:56;32.70;;;18.60;;
70228;SDS011;57617;51.988;5.854;2023-05-07T06:47:21;27.85;;;18.30;;
70228;SDS011;57617;51.988;5.854;2023-05-07T06:49:46;27.35;;;17.38;;
70228;SDS011;57617;51.988;5.854;2023-05-07T06:52:12;28.33;;;17.90;;
70228;SDS011;57617;51.988;5.854;2023-05-07T06:54:37;26.98;;;16.58;;
70228;SDS011;57617;51.988;5.854;2023-05-07T06:57:02;35.50;;;19.05;;
70228;SDS011;57617;51.988;5.854;2023-05-07T06:59:28;27.52;;;17.60;;
70228;SDS011;57617;51.988;5.854;2023-05-07T07:01:53;29.33;;;19.23;;
70228;SDS011;57617;51.988;5.854;2023-05-07T07:04:18;35.55;;;19.38;;
70228;SDS011;57617;51.988;5.854;2023-05-07T07:06:44;32.60;;;19.83;;
70228;SDS011;57617;51.988;5.854;2023-05-07T07:09:10;31.25;;;19.60;;
70228;SDS011;57617;51.988;5.854;2023-05-07T07:11:35;31.63;;;18.85;;
70228;SDS011;57617;51.988;5.854;2023-05-07T07:14:01;32.40;;;20.30;;
70228;SDS011;57617;51.988;5.854;2023-05-07T07:16:26;35.28;;;20.02;;
70228;SDS011;57617;51.988;5.854;2023-05-07T07:18:51;31.02;;;19.92;;
70228;SDS011;57617;51.988;5.854;2023-05-07T07:21:16;32.10;;;20.10;;
70228;SDS011;57617;51.988;5.854;2023-05-07T07:23:42;31.98;;;20.15;;
70228;SDS011;57617;51.988;5.854;2023-05-07T07:26:07;32.05;;;19.77;;
70228;SDS011;57617;51.988;5.854;2023-05-07T07:28:32;31.35;;;20.13;;
70228;SDS011;57617;51.988;5.854;2023-05-07T07:30:58;32.90;;;20.25;;
70228;SDS011;57617;51.988;5.854;2023-05-07T07:33:23;37.22;;;21.42;;
70228;SDS011;57617;51.988;5.854;2023-05-07T07:35:48;34.22;;;20.58;;
70228;SDS011;57617;51.988;5.854;2023-05-07T07:38:14;32.75;;;19.30;;
70228;SDS011;57617;51.988;5.854;2023-05-07T07:40:39;32.35;;;20.40;;
70228;SDS011;57617;51.988;5.854;2023-05-07T07:43:04;33.47;;;20.95;;
70228;SDS011;57617;51.988;5.854;2023-05-07T07:45:30;31.48;;;19.73;;
70228;SDS011;57617;51.988;5.854;2023-05-07T07:47:56;35.65;;;19.98;;
70228;SDS011;57617;51.988;5.854;2023-05-07T07:50:21;32.80;;;19.85;;
70228;SDS011;57617;51.988;5.854;2023-05-07T07:52:47;32.47;;;20.25;;
70228;SDS011;57617;51.988;5.854;2023-05-07T07:55:13;34.75;;;20.88;;
70228;SDS011;57617;51.988;5.854;2023-05-07T07:57:38;31.83;;;20.10;;
70228;SDS011;57617;51.988;5.854;2023-05-07T08:00:04;35.20;;;21.42;;
70228;SDS011;57617;51.988;5.854;2023-05-07T08:02:31;33.42;;;20.20;;
70228;SDS011;57617;51.988;5.854;2023-05-07T08:04:57;35.05;;;21.25;;
70228;SDS011;57617;51.988;5.854;2023-05-07T08:07:22;33.38;;;20.23;;
70228;SDS011;57617;51.988;5.854;2023-05-07T08:09:47;35.00;;;20.40;;
70228;SDS011;57617;51.988;5.854;2023-05-07T08:12:13;36.00;;;20.80;;
70228;SDS011;57617;51.988;5.854;2023-05-07T08:14:38;33.88;;;21.08;;
70228;SDS011;57617;51.988;5.854;2023-05-07T08:17:04;32.65;;;20.83;;
70228;SDS011;57617;51.988;5.854;2023-05-07T08:19:29;32.78;;;20.42;;
70228;SDS011;57617;51.988;5.854;2023-05-07T08:21:54;29.10;;;19.00;;
70228;SDS011;57617;51.988;5.854;2023-05-07T08:24:20;32.05;;;19.88;;
70228;SDS011;57617;51.988;5.854;2023-05-07T08:26:46;32.13;;;19.45;;
70228;SDS011;57617;51.988;5.854;2023-05-07T08:29:11;30.50;;;19.35;;
70228;SDS011;57617;51.988;5.854;2023-05-07T08:31:36;31.05;;;18.95;;
70228;SDS011;57617;51.988;5.854;2023-05-07T08:34:03;30.70;;;18.88;;
70228;SDS011;57617;51.988;5.854;2023-05-07T08:36:29;35.43;;;19.83;;
70228;SDS011;57617;51.988;5.854;2023-05-07T08:38:54;33.50;;;18.85;;
70228;SDS011;57617;51.988;5.854;2023-05-07T08:41:20;29.92;;;18.30;;
70228;SDS011;57617;51.988;5.854;2023-05-07T08:43:47;28.90;;;17.08;;
70228;SDS011;57617;51.988;5.854;2023-05-07T08:46:16;29.25;;;17.67;;
70228;SDS011;57617;51.988;5.854;2023-05-07T08:48:49;30.15;;;17.38;;
70228;SDS011;57617;51.988;5.854;2023-05-07T08:51:19;26.73;;;16.92;;
70228;SDS011;57617;51.988;5.854;2023-05-07T08:53:46;26.58;;;17.10;;
70228;SDS011;57617;51.988;5.854;2023-05-07T08:56:13;30.42;;;17.65;;
70228;SDS011;57617;51.988;5.854;2023-05-07T08:58:40;25.50;;;16.77;;
70228;SDS011;57617;51.988;5.854;2023-05-07T09:01:09;24.27;;;15.88;;
70228;SDS011;57617;51.988;5.854;2023-05-07T09:03:38;24.83;;;15.93;;
70228;SDS011;57617;51.988;5.854;2023-05-07T09:06:04;26.85;;;16.35;;
70228;SDS011;57617;51.988;5.854;2023-05-07T09:08:32;27.50;;;16.15;;
70228;SDS011;57617;51.988;5.854;2023-05-07T09:10:58;24.67;;;15.68;;
70228;SDS011;57617;51.988;5.854;2023-05-07T09:13:23;27.58;;;15.05;;
70228;SDS011;57617;51.988;5.854;2023-05-07T09:15:48;23.17;;;14.45;;
70228;SDS011;57617;51.988;5.854;2023-05-07T09:18:14;21.10;;;14.15;;
70228;SDS011;57617;51.988;5.854;2023-05-07T09:20:39;21.35;;;14.10;;
70228;SDS011;57617;51.988;5.854;2023-05-07T09:23:05;26.35;;;14.77;;
70228;SDS011;57617;51.988;5.854;2023-05-07T09:25:32;24.42;;;15.18;;
70228;SDS011;57617;51.988;5.854;2023-05-07T09:27:58;25.65;;;15.75;;
70228;SDS011;57617;51.988;5.854;2023-05-07T09:30:28;23.42;;;15.20;;
70228;SDS011;57617;51.988;5.854;2023-05-07T09:32:55;22.92;;;15.18;;
70228;SDS011;57617;51.988;5.854;2023-05-07T09:35:21;26.38;;;14.10;;
70228;SDS011;57617;51.988;5.854;2023-05-07T09:37:49;24.13;;;13.98;;
70228;SDS011;57617;51.988;5.854;2023-05-07T09:40:24;22.45;;;13.45;;
70228;SDS011;57617;51.988;5.854;2023-05-07T09:42:51;21.88;;;14.18;;
70228;SDS011;57617;51.988;5.854;2023-05-07T09:45:26;23.17;;;13.02;;
70228;SDS011;57617;51.988;5.854;2023-05-07T09:47:55;20.60;;;13.73;;
70228;SDS011;57617;51.988;5.854;2023-05-07T09:50:25;26.40;;;13.63;;
70228;SDS011;57617;51.988;5.854;2023-05-07T09:52:53;22.00;;;13.57;;
70228;SDS011;57617;51.988;5.854;2023-05-07T09:55:20;21.40;;;11.93;;
70228;SDS011;57617;51.988;5.854;2023-05-07T09:57:48;21.23;;;13.30;;
70228;SDS011;57617;51.988;5.854;2023-05-07T10:00:15;24.30;;;13.77;;
70228;SDS011;57617;51.988;5.854;2023-05-07T10:02:43;20.55;;;13.20;;
70228;SDS011;57617;51.988;5.854;2023-05-07T10:05:14;20.35;;;12.60;;
70228;SDS011;57617;51.988;5.854;2023-05-07T10:07:40;21.27;;;14.45;;
70228;SDS011;57617;51.988;5.854;2023-05-07T10:10:06;22.63;;;14.00;;
70228;SDS011;57617;51.988;5.854;2023-05-07T10:12:32;24.60;;;15.15;;
70228;SDS011;57617;51.988;5.854;2023-05-07T10:15:03;25.35;;;14.27;;
70228;SDS011;57617;51.988;5.854;2023-05-07T10:17:35;25.05;;;14.18;;
70228;SDS011;57617;51.988;5.854;2023-05-07T10:20:04;22.75;;;13.82;;
70228;SDS011;57617;51.988;5.854;2023-05-07T10:22:47;24.02;;;14.45;;
70228;SDS011;57617;51.988;5.854;2023-05-07T10:25:21;22.48;;;14.32;;
70228;SDS011;57617;51.988;5.854;2023-05-07T10:27:50;21.88;;;14.18;;
70228;SDS011;57617;51.988;5.854;2023-05-07T10:30:34;21.92;;;13.98;;
70228;SDS011;57617;51.988;5.854;2023-05-07T10:33:03;19.00;;;12.88;;
70228;SDS011;57617;51.988;5.854;2023-05-07T10:35:32;18.33;;;13.20;;
70228;SDS011;57617;51.988;5.854;2023-05-07T10:38:04;22.85;;;14.10;;
70228;SDS011;57617;51.988;5.854;2023-05-07T10:40:30;23.90;;;14.07;;
70228;SDS011;57617;51.988;5.854;2023-05-07T10:42:57;21.35;;;14.35;;
70228;SDS011;57617;51.988;5.854;2023-05-07T10:45:24;20.88;;;13.30;;
70228;SDS011;57617;51.988;5.854;2023-05-07T10:48:06;23.65;;;14.27;;
70228;SDS011;57617;51.988;5.854;2023-05-07T10:50:42;21.70;;;13.75;;
70228;SDS011;57617;51.988;5.854;2023-05-07T10:55:43;18.55;;;13.15;;
70228;SDS011;57617;51.988;5.854;2023-05-07T11:00:46;19.80;;;13.88;;
70228;SDS011;57617;51.988;5.854;2023-05-07T11:03:11;20.33;;;13.43;;
70228;SDS011;57617;51.988;5.854;2023-05-07T11:05:37;18.27;;;12.77;;
70228;SDS011;57617;51.988;5.854;2023-05-07T11:08:03;20.55;;;12.98;;
70228;SDS011;57617;51.988;5.854;2023-05-07T11:13:18;18.90;;;12.23;;
70228;SDS011;57617;51.988;5.854;2023-05-07T11:16:04;19.27;;;13.07;;
70228;SDS011;57617;51.988;5.854;2023-05-07T11:18:45;18.58;;;13.38;;
70228;SDS011;57617;51.988;5.854;2023-05-07T11:23:59;22.70;;;13.77;;
70228;SDS011;57617;51.988;5.854;2023-05-07T11:26:25;21.80;;;14.82;;
70228;SDS011;57617;51.988;5.854;2023-05-07T11:28:52;23.00;;;15.40;;
70228;SDS011;57617;51.988;5.854;2023-05-07T11:31:25;20.92;;;14.55;;
70228;SDS011;57617;51.988;5.854;2023-05-07T11:33:53;21.48;;;14.38;;
70228;SDS011;57617;51.988;5.854;2023-05-07T11:36:21;17.77;;;12.77;;
70228;SDS011;57617;51.988;5.854;2023-05-07T11:38:47;18.85;;;13.02;;
70228;SDS011;57617;51.988;5.854;2023-05-07T11:41:13;20.10;;;13.70;;
70228;SDS011;57617;51.988;5.854;2023-05-07T11:43:40;20.70;;;14.25;;
70228;SDS011;57617;51.988;5.854;2023-05-07T11:46:19;17.75;;;12.93;;
70228;SDS011;57617;51.988;5.854;2023-05-07T11:48:45;21.98;;;14.18;;
70228;SDS011;57617;51.988;5.854;2023-05-07T11:51:10;22.38;;;14.48;;
70228;SDS011;57617;51.988;5.854;2023-05-07T11:53:38;20.58;;;14.77;;
70228;SDS011;57617;51.988;5.854;2023-05-07T11:56:08;17.38;;;13.15;;
70228;SDS011;57617;51.988;5.854;2023-05-07T11:58:35;19.10;;;13.18;;
70228;SDS011;57617;51.988;5.854;2023-05-07T12:01:01;21.15;;;14.20;;
70228;SDS011;57617;51.988;5.854;2023-05-07T12:03:26;20.63;;;15.13;;
70228;SDS011;57617;51.988;5.854;2023-05-07T12:05:51;21.85;;;14.90;;
70228;SDS011;57617;51.988;5.854;2023-05-07T12:08:17;20.27;;;15.02;;
70228;SDS011;57617;51.988;5.854;2023-05-07T12:10:44;24.33;;;15.38;;
70228;SDS011;57617;51.988;5.854;2023-05-07T12:13:17;20.80;;;15.23;;
70228;SDS011;57617;51.988;5.854;2023-05-07T12:15:43;22.45;;;13.80;;
70228;SDS011;57617;51.988;5.854;2023-05-07T12:18:09;20.55;;;14.30;;
70228;SDS011;57617;51.988;5.854;2023-05-07T12:20:36;18.70;;;13.95;;
70228;SDS011;57617;51.988;5.854;2023-05-07T12:23:02;17.90;;;13.60;;
70228;SDS011;57617;51.988;5.854;2023-05-07T12:25:34;19.05;;;13.75;;
70228;SDS011;57617;51.988;5.854;2023-05-07T12:28:01;22.98;;;14.35;;
70228;SDS011;57617;51.988;5.854;2023-05-07T12:30:29;21.20;;;14.13;;
70228;SDS011;57617;51.988;5.854;2023-05-07T12:32:56;20.55;;;14.10;;
70228;SDS011;57617;51.988;5.854;2023-05-07T12:35:31;22.48;;;15.10;;
70228;SDS011;57617;51.988;5.854;2023-05-07T12:38:01;19.60;;;14.30;;
70228;SDS011;57617;51.988;5.854;2023-05-07T12:40:35;19.10;;;14.52;;
70228;SDS011;57617;51.988;5.854;2023-05-07T12:43:01;18.30;;;14.07;;
70228;SDS011;57617;51.988;5.854;2023-05-07T12:45:27;22.42;;;14.85;;
70228;SDS011;57617;51.988;5.854;2023-05-07T12:47:52;19.00;;;13.55;;
70228;SDS011;57617;51.988;5.854;2023-05-07T12:50:17;20.05;;;13.77;;
70228;SDS011;57617;51.988;5.854;2023-05-07T12:52:45;16.58;;;13.10;;
70228;SDS011;57617;51.988;5.854;2023-05-07T12:55:15;20.50;;;13.30;;
70228;SDS011;57617;51.988;5.854;2023-05-07T12:57:43;20.23;;;13.88;;
70228;SDS011;57617;51.988;5.854;2023-05-07T13:00:12;17.95;;;13.57;;
70228;SDS011;57617;51.988;5.854;2023-05-07T13:02:39;17.25;;;13.30;;
70228;SDS011;57617;51.988;5.854;2023-05-07T13:05:05;18.40;;;12.95;;
70228;SDS011;57617;51.988;5.854;2023-05-07T13:07:32;21.35;;;12.85;;
70228;SDS011;57617;51.988;5.854;2023-05-07T13:09:57;19.55;;;13.40;;
70228;SDS011;57617;51.988;5.854;2023-05-07T13:12:22;18.05;;;12.93;;
70228;SDS011;57617;51.988;5.854;2023-05-07T13:14:47;19.92;;;12.82;;
70228;SDS011;57617;51.988;5.854;2023-05-07T13:17:13;18.35;;;12.68;;
70228;SDS011;57617;51.988;5.854;2023-05-07T13:19:38;16.90;;;12.48;;
70228;SDS011;57617;51.988;5.854;2023-05-07T13:22:03;19.00;;;12.80;;
70228;SDS011;57617;51.988;5.854;2023-05-07T13:24:29;17.50;;;12.88;;
70228;SDS011;57617;51.988;5.854;2023-05-07T13:26:54;16.10;;;11.95;;
70228;SDS011;57617;51.988;5.854;2023-05-07T13:29:20;18.65;;;12.50;;
70228;SDS011;57617;51.988;5.854;2023-05-07T13:31:50;16.13;;;11.43;;
70228;SDS011;57617;51.988;5.854;2023-05-07T13:34:15;15.48;;;10.98;;
70228;SDS011;57617;51.988;5.854;2023-05-07T13:36:41;12.88;;;9.85;;
70228;SDS011;57617;51.988;5.854;2023-05-07T13:39:06;18.50;;;10.13;;
70228;SDS011;57617;51.988;5.854;2023-05-07T13:41:32;17.15;;;10.60;;
70228;SDS011;57617;51.988;5.854;2023-05-07T13:43:57;16.10;;;11.15;;
70228;SDS011;57617;51.988;5.854;2023-05-07T13:46:22;18.95;;;10.95;;
70228;SDS011;57617;51.988;5.854;2023-05-07T13:48:48;16.25;;;10.82;;
70228;SDS011;57617;51.988;5.854;2023-05-07T13:51:13;17.00;;;11.15;;
70228;SDS011;57617;51.988;5.854;2023-05-07T13:53:38;14.75;;;10.68;;
70228;SDS011;57617;51.988;5.854;2023-05-07T13:56:04;15.52;;;10.45;;
70228;SDS011;57617;51.988;5.854;2023-05-07T13:58:30;14.50;;;9.73;;
70228;SDS011;57617;51.988;5.854;2023-05-07T14:00:55;18.23;;;11.10;;
70228;SDS011;57617;51.988;5.854;2023-05-07T14:03:21;15.90;;;10.55;;
70228;SDS011;57617;51.988;5.854;2023-05-07T14:05:46;17.83;;;9.50;;
70228;SDS011;57617;51.988;5.854;2023-05-07T14:08:11;15.52;;;10.38;;
70228;SDS011;57617;51.988;5.854;2023-05-07T14:10:38;12.57;;;9.93;;
70228;SDS011;57617;51.988;5.854;2023-05-07T14:13:04;13.02;;;9.63;;
70228;SDS011;57617;51.988;5.854;2023-05-07T14:15:29;15.18;;;10.02;;
70228;SDS011;57617;51.988;5.854;2023-05-07T14:17:55;13.13;;;9.02;;
70228;SDS011;57617;51.988;5.854;2023-05-07T14:20:22;18.88;;;11.02;;
70228;SDS011;57617;51.988;5.854;2023-05-07T14:22:47;13.60;;;9.90;;
70228;SDS011;57617;51.988;5.854;2023-05-07T14:25:12;14.05;;;9.63;;
70228;SDS011;57617;51.988;5.854;2023-05-07T14:27:38;13.40;;;9.27;;
70228;SDS011;57617;51.988;5.854;2023-05-07T14:30:06;12.57;;;9.10;;